Anthony, TX

3:36 PM MDT on August 22, 2014 (GMT -0600)
Santa Teresa | Change Station
CLOSE
Current Station
Personal Weather Station
Location: Santa Teresa, NM
Elevation: 3811 ft
Nearby Weather Stations

Elev 3811 ft 31.87 °N, 106.65 °W | Updated 10 seconds ago

Overcast
Overcast
80.4 °F
Feels Like 81 °F
N
0.0
Wind Variable Wind from SE
Gusts 7.0 mph

Today
High -- | Low -- °F
--% Chance of Precip.
Yesterday
High -- | Low -- °F
Precip. -- in
6:35 AM 7:42 PM
Waning Crescent, 6% visible
Pressure 29.98 in
Visibility 9.0 miles
Clouds Few 2000 ft
Mostly Cloudy 4000 ft
Overcast 16000 ft
Heat Index 81 °F
Dew Point 62 °F
Humidity 53%
Rainfall 0.20 in
Snow Depth Not available.
UV 3 out of 12
Pollen 6.60 out of 12
Air Quality Not available.
Flu Activity Not available.
METAR KBIF 222056Z 15006KT 9SM FEW020 BKN040 OVC160 24/16 A3014 RMK AO2A SLP150 T02430162 57007

More Conditions Fewer Conditions

Pressure 29.98 in
Visibility 9.0 miles
Clouds Few 2000 ft
Mostly Cloudy 4000 ft
Overcast 16000 ft
Heat Index 81 °F
Dew Point 62 °F
Humidity 53%
Rainfall 0.20 in
Snow Depth Not available.
UV 3 out of 12
Pollen 6.60 out of 12
Air Quality Not available.
Flu Activity Not available.
METAR KBIF 222056Z 15006KT 9SM FEW020 BKN040 OVC160 24/16 A3014 RMK AO2A SLP150 T02430162 57007

More Conditions Fewer Conditions

10-Day Weather Forecast

Almanac

Astronomy

Aug. 22, 2014 Rise Set
Actual Time 6:35 AM MDT 7:42 PM MDT
Civil Twilight 6:10 AM MDT 8:07 PM MDT
Nautical Twilight 5:40 AM MDT 8:37 PM MDT
Astronomical Twilight 5:08 AM MDT 9:08 PM MDT
Moon 4:05 AM MDT 5:49 PM MDT
Length of Visible Light 13h 57m
Length of Day
13h 06m
Tomorrow will be 1m 48s shorter.
Waning Crescent, 6% of the Moon is Illuminated
Today
Waning Crescent
Aug 25
New
Sep 2
First Quarter
Sep 8
Full
Sep 15
Last Quarter

Today's Extremes

State Highs State Lows

Community

WunderPhotos

Upload Photos

1,746,259 photos uploaded!

Nearby

Snow Depth

Station Depth Elevation
No new snow has been reported.

Earthquake Activity

City Distance Mag. Time & Date
No recent earthquake activity has been reported nearby.
Minimum magnitude displayed is 2.5.

Coastal Water Temperatures

Place Temperature
No Stations Reporting

Nearby Weather Stations